sensor_id;sensor_type;location;lat;lon;timestamp;P1;durP1;ratioP1;P2;durP2;ratioP2
20170;SDS011;10245;51.344;6.620;2023-09-19T00:02:11;13.27;;;3.33;;
20170;SDS011;10245;51.344;6.620;2023-09-19T00:04:35;12.10;;;3.25;;
20170;SDS011;10245;51.344;6.620;2023-09-19T00:07:01;11.73;;;2.80;;
20170;SDS011;10245;51.344;6.620;2023-09-19T00:09:25;13.52;;;2.90;;
20170;SDS011;10245;51.344;6.620;2023-09-19T00:11:49;10.60;;;2.92;;
20170;SDS011;10245;51.344;6.620;2023-09-19T00:14:12;10.23;;;2.72;;
20170;SDS011;10245;51.344;6.620;2023-09-19T00:16:36;13.00;;;3.08;;
20170;SDS011;10245;51.344;6.620;2023-09-19T00:19:01;8.05;;;2.97;;
20170;SDS011;10245;51.344;6.620;2023-09-19T00:21:31;10.70;;;2.90;;
20170;SDS011;10245;51.344;6.620;2023-09-19T00:23:54;13.88;;;3.03;;
20170;SDS011;10245;51.344;6.620;2023-09-19T00:26:18;10.45;;;2.90;;
20170;SDS011;10245;51.344;6.620;2023-09-19T00:28:43;9.13;;;2.90;;
20170;SDS011;10245;51.344;6.620;2023-09-19T00:31:07;9.93;;;2.80;;
20170;SDS011;10245;51.344;6.620;2023-09-19T00:33:31;13.00;;;2.90;;
20170;SDS011;10245;51.344;6.620;2023-09-19T00:35:57;12.82;;;3.08;;
20170;SDS011;10245;51.344;6.620;2023-09-19T00:38:21;11.88;;;3.40;;
20170;SDS011;10245;51.344;6.620;2023-09-19T00:40:48;11.45;;;3.70;;
20170;SDS011;10245;51.344;6.620;2023-09-19T00:43:12;13.15;;;2.95;;
20170;SDS011;10245;51.344;6.620;2023-09-19T00:45:36;14.32;;;3.65;;
20170;SDS011;10245;51.344;6.620;2023-09-19T00:48:03;13.18;;;3.33;;
20170;SDS011;10245;51.344;6.620;2023-09-19T00:50:30;10.30;;;3.25;;
20170;SDS011;10245;51.344;6.620;2023-09-19T00:52:55;10.50;;;2.78;;
20170;SDS011;10245;51.344;6.620;2023-09-19T00:55:19;12.93;;;3.13;;
20170;SDS011;10245;51.344;6.620;2023-09-19T00:57:43;10.98;;;3.42;;
20170;SDS011;10245;51.344;6.620;2023-09-19T01:00:07;14.13;;;3.80;;
20170;SDS011;10245;51.344;6.620;2023-09-19T01:02:36;17.80;;;3.83;;
20170;SDS011;10245;51.344;6.620;2023-09-19T01:05:00;12.57;;;3.35;;
20170;SDS011;10245;51.344;6.620;2023-09-19T01:07:25;14.63;;;3.70;;
20170;SDS011;10245;51.344;6.620;2023-09-19T01:09:52;12.10;;;3.22;;
20170;SDS011;10245;51.344;6.620;2023-09-19T01:12:18;14.38;;;3.95;;
20170;SDS011;10245;51.344;6.620;2023-09-19T01:14:49;14.43;;;2.85;;
20170;SDS011;10245;51.344;6.620;2023-09-19T01:17:20;11.82;;;2.70;;
20170;SDS011;10245;51.344;6.620;2023-09-19T01:19:56;12.38;;;3.13;;
20170;SDS011;10245;51.344;6.620;2023-09-19T01:22:36;14.07;;;3.75;;
20170;SDS011;10245;51.344;6.620;2023-09-19T01:28:31;11.57;;;3.05;;
20170;SDS011;10245;51.344;6.620;2023-09-19T01:31:01;15.60;;;3.58;;
20170;SDS011;10245;51.344;6.620;2023-09-19T01:33:26;14.30;;;3.47;;
20170;SDS011;10245;51.344;6.620;2023-09-19T01:35:55;11.07;;;3.20;;
20170;SDS011;10245;51.344;6.620;2023-09-19T01:38:20;11.60;;;3.20;;
20170;SDS011;10245;51.344;6.620;2023-09-19T01:40:48;12.70;;;3.22;;
20170;SDS011;10245;51.344;6.620;2023-09-19T01:43:20;10.18;;;2.92;;
20170;SDS011;10245;51.344;6.620;2023-09-19T01:45:51;13.65;;;3.63;;
20170;SDS011;10245;51.344;6.620;2023-09-19T01:48:25;8.55;;;3.38;;
20170;SDS011;10245;51.344;6.620;2023-09-19T01:51:00;9.57;;;3.08;;
20170;SDS011;10245;51.344;6.620;2023-09-19T01:53:27;10.80;;;3.08;;
20170;SDS011;10245;51.344;6.620;2023-09-19T01:55:56;15.50;;;3.45;;
20170;SDS011;10245;51.344;6.620;2023-09-19T01:58:26;12.35;;;2.97;;
20170;SDS011;10245;51.344;6.620;2023-09-19T02:00:56;9.32;;;3.05;;
20170;SDS011;10245;51.344;6.620;2023-09-19T02:03:23;10.88;;;3.45;;
20170;SDS011;10245;51.344;6.620;2023-09-19T02:05:49;12.27;;;3.33;;
20170;SDS011;10245;51.344;6.620;2023-09-19T02:08:16;10.93;;;3.15;;
20170;SDS011;10245;51.344;6.620;2023-09-19T02:10:40;12.63;;;3.47;;
20170;SDS011;10245;51.344;6.620;2023-09-19T02:13:03;12.15;;;3.13;;
20170;SDS011;10245;51.344;6.620;2023-09-19T02:15:27;11.45;;;3.35;;
20170;SDS011;10245;51.344;6.620;2023-09-19T02:17:53;11.30;;;3.40;;
20170;SDS011;10245;51.344;6.620;2023-09-19T02:20:19;12.68;;;2.78;;
20170;SDS011;10245;51.344;6.620;2023-09-19T02:22:43;13.23;;;3.65;;
20170;SDS011;10245;51.344;6.620;2023-09-19T02:25:07;14.82;;;3.63;;
20170;SDS011;10245;51.344;6.620;2023-09-19T02:27:31;10.32;;;3.50;;
20170;SDS011;10245;51.344;6.620;2023-09-19T02:29:54;14.07;;;3.22;;
20170;SDS011;10245;51.344;6.620;2023-09-19T02:32:18;13.85;;;3.33;;
20170;SDS011;10245;51.344;6.620;2023-09-19T02:34:42;13.32;;;3.58;;
20170;SDS011;10245;51.344;6.620;2023-09-19T02:37:07;15.98;;;3.83;;
20170;SDS011;10245;51.344;6.620;2023-09-19T02:39:31;11.98;;;3.13;;
20170;SDS011;10245;51.344;6.620;2023-09-19T02:41:55;12.32;;;3.10;;
20170;SDS011;10245;51.344;6.620;2023-09-19T02:44:19;9.80;;;3.20;;
20170;SDS011;10245;51.344;6.620;2023-09-19T02:46:42;11.43;;;2.75;;
20170;SDS011;10245;51.344;6.620;2023-09-19T02:49:06;15.38;;;3.33;;
20170;SDS011;10245;51.344;6.620;2023-09-19T02:51:29;17.75;;;4.07;;
20170;SDS011;10245;51.344;6.620;2023-09-19T02:53:54;10.27;;;3.10;;
20170;SDS011;10245;51.344;6.620;2023-09-19T02:56:19;8.52;;;2.95;;
20170;SDS011;10245;51.344;6.620;2023-09-19T02:58:44;13.23;;;3.25;;
20170;SDS011;10245;51.344;6.620;2023-09-19T03:01:08;13.40;;;3.60;;
20170;SDS011;10245;51.344;6.620;2023-09-19T03:03:33;10.18;;;2.75;;
20170;SDS011;10245;51.344;6.620;2023-09-19T03:05:59;9.82;;;2.83;;
20170;SDS011;10245;51.344;6.620;2023-09-19T03:08:25;10.20;;;3.03;;
20170;SDS011;10245;51.344;6.620;2023-09-19T03:10:50;9.90;;;3.08;;
20170;SDS011;10245;51.344;6.620;2023-09-19T03:13:14;10.52;;;3.20;;
20170;SDS011;10245;51.344;6.620;2023-09-19T03:15:40;10.25;;;2.97;;
20170;SDS011;10245;51.344;6.620;2023-09-19T03:18:06;10.90;;;3.15;;
20170;SDS011;10245;51.344;6.620;2023-09-19T03:20:29;13.13;;;3.33;;
20170;SDS011;10245;51.344;6.620;2023-09-19T03:22:53;8.65;;;3.20;;
20170;SDS011;10245;51.344;6.620;2023-09-19T03:25:17;14.98;;;3.42;;
20170;SDS011;10245;51.344;6.620;2023-09-19T03:27:45;9.13;;;3.25;;
20170;SDS011;10245;51.344;6.620;2023-09-19T03:30:09;11.68;;;3.28;;
20170;SDS011;10245;51.344;6.620;2023-09-19T03:32:36;10.73;;;3.10;;
20170;SDS011;10245;51.344;6.620;2023-09-19T03:35:06;9.77;;;2.70;;
20170;SDS011;10245;51.344;6.620;2023-09-19T03:37:36;14.88;;;3.88;;
20170;SDS011;10245;51.344;6.620;2023-09-19T03:40:00;11.57;;;3.28;;
20170;SDS011;10245;51.344;6.620;2023-09-19T03:42:27;7.70;;;2.92;;
20170;SDS011;10245;51.344;6.620;2023-09-19T03:44:52;11.15;;;2.97;;
20170;SDS011;10245;51.344;6.620;2023-09-19T03:47:16;12.65;;;3.47;;
20170;SDS011;10245;51.344;6.620;2023-09-19T03:49:40;10.10;;;2.85;;
20170;SDS011;10245;51.344;6.620;2023-09-19T03:52:04;13.68;;;3.13;;
20170;SDS011;10245;51.344;6.620;2023-09-19T03:54:27;11.82;;;3.30;;
20170;SDS011;10245;51.344;6.620;2023-09-19T03:56:52;11.35;;;3.13;;
20170;SDS011;10245;51.344;6.620;2023-09-19T03:59:15;11.18;;;3.20;;
20170;SDS011;10245;51.344;6.620;2023-09-19T04:01:40;9.45;;;3.10;;
20170;SDS011;10245;51.344;6.620;2023-09-19T04:04:04;11.10;;;3.20;;
20170;SDS011;10245;51.344;6.620;2023-09-19T04:06:31;11.65;;;3.15;;
20170;SDS011;10245;51.344;6.620;2023-09-19T04:08:54;12.98;;;3.70;;
20170;SDS011;10245;51.344;6.620;2023-09-19T04:11:18;14.13;;;3.35;;
20170;SDS011;10245;51.344;6.620;2023-09-19T04:13:42;7.63;;;2.80;;
20170;SDS011;10245;51.344;6.620;2023-09-19T04:16:06;9.82;;;2.85;;
20170;SDS011;10245;51.344;6.620;2023-09-19T04:18:30;10.45;;;3.20;;
20170;SDS011;10245;51.344;6.620;2023-09-19T04:20:56;10.60;;;3.10;;
20170;SDS011;10245;51.344;6.620;2023-09-19T04:23:19;8.50;;;3.30;;
20170;SDS011;10245;51.344;6.620;2023-09-19T04:25:43;11.32;;;3.05;;
20170;SDS011;10245;51.344;6.620;2023-09-19T04:28:06;10.65;;;3.60;;
20170;SDS011;10245;51.344;6.620;2023-09-19T04:30:31;17.08;;;3.50;;
20170;SDS011;10245;51.344;6.620;2023-09-19T04:32:55;9.30;;;2.97;;
20170;SDS011;10245;51.344;6.620;2023-09-19T04:35:19;11.63;;;3.55;;
20170;SDS011;10245;51.344;6.620;2023-09-19T04:37:43;8.73;;;3.33;;
20170;SDS011;10245;51.344;6.620;2023-09-19T04:40:07;10.98;;;3.40;;
20170;SDS011;10245;51.344;6.620;2023-09-19T04:42:34;14.82;;;3.50;;
20170;SDS011;10245;51.344;6.620;2023-09-19T04:44:58;16.10;;;3.30;;
20170;SDS011;10245;51.344;6.620;2023-09-19T04:47:22;11.98;;;2.88;;
20170;SDS011;10245;51.344;6.620;2023-09-19T04:49:45;12.85;;;3.30;;
20170;SDS011;10245;51.344;6.620;2023-09-19T04:52:10;10.63;;;3.33;;
20170;SDS011;10245;51.344;6.620;2023-09-19T04:54:36;17.45;;;3.55;;
20170;SDS011;10245;51.344;6.620;2023-09-19T04:57:01;10.68;;;3.63;;
20170;SDS011;10245;51.344;6.620;2023-09-19T04:59:27;13.88;;;3.50;;
20170;SDS011;10245;51.344;6.620;2023-09-19T05:01:50;12.40;;;3.75;;
20170;SDS011;10245;51.344;6.620;2023-09-19T05:04:14;13.52;;;3.13;;
20170;SDS011;10245;51.344;6.620;2023-09-19T05:06:37;10.15;;;3.42;;
20170;SDS011;10245;51.344;6.620;2023-09-19T05:09:02;9.68;;;3.30;;
20170;SDS011;10245;51.344;6.620;2023-09-19T05:11:27;16.00;;;3.80;;
20170;SDS011;10245;51.344;6.620;2023-09-19T05:13:51;14.73;;;3.63;;
20170;SDS011;10245;51.344;6.620;2023-09-19T05:16:15;14.95;;;3.60;;
20170;SDS011;10245;51.344;6.620;2023-09-19T05:18:39;13.73;;;3.25;;
20170;SDS011;10245;51.344;6.620;2023-09-19T05:21:02;10.55;;;3.58;;
20170;SDS011;10245;51.344;6.620;2023-09-19T05:23:26;12.75;;;3.90;;
20170;SDS011;10245;51.344;6.620;2023-09-19T05:25:51;11.25;;;3.33;;
20170;SDS011;10245;51.344;6.620;2023-09-19T05:28:14;13.32;;;3.42;;
20170;SDS011;10245;51.344;6.620;2023-09-19T05:30:37;11.98;;;3.35;;
20170;SDS011;10245;51.344;6.620;2023-09-19T05:33:01;13.85;;;3.58;;
20170;SDS011;10245;51.344;6.620;2023-09-19T05:35:26;15.05;;;3.85;;
20170;SDS011;10245;51.344;6.620;2023-09-19T05:37:50;11.35;;;3.65;;
20170;SDS011;10245;51.344;6.620;2023-09-19T05:40:14;14.40;;;3.45;;
20170;SDS011;10245;51.344;6.620;2023-09-19T05:42:40;15.38;;;3.40;;
20170;SDS011;10245;51.344;6.620;2023-09-19T05:45:04;12.50;;;3.78;;
20170;SDS011;10245;51.344;6.620;2023-09-19T05:47:28;12.20;;;3.10;;
20170;SDS011;10245;51.344;6.620;2023-09-19T05:49:52;13.82;;;3.38;;
20170;SDS011;10245;51.344;6.620;2023-09-19T05:52:15;11.48;;;3.20;;
20170;SDS011;10245;51.344;6.620;2023-09-19T05:54:40;13.73;;;3.22;;
20170;SDS011;10245;51.344;6.620;2023-09-19T05:57:04;14.48;;;3.78;;
20170;SDS011;10245;51.344;6.620;2023-09-19T05:59:28;15.77;;;3.97;;
20170;SDS011;10245;51.344;6.620;2023-09-19T06:01:52;12.63;;;2.97;;
20170;SDS011;10245;51.344;6.620;2023-09-19T06:04:16;11.85;;;3.28;;
20170;SDS011;10245;51.344;6.620;2023-09-19T06:06:41;14.65;;;3.42;;
20170;SDS011;10245;51.344;6.620;2023-09-19T06:09:04;9.52;;;3.63;;
20170;SDS011;10245;51.344;6.620;2023-09-19T06:11:29;14.77;;;3.80;;
20170;SDS011;10245;51.344;6.620;2023-09-19T06:13:55;15.73;;;4.15;;
20170;SDS011;10245;51.344;6.620;2023-09-19T06:16:20;12.77;;;3.75;;
20170;SDS011;10245;51.344;6.620;2023-09-19T06:18:44;15.35;;;3.45;;
20170;SDS011;10245;51.344;6.620;2023-09-19T06:21:08;13.77;;;3.42;;
20170;SDS011;10245;51.344;6.620;2023-09-19T06:23:31;13.32;;;3.63;;
20170;SDS011;10245;51.344;6.620;2023-09-19T06:25:55;11.63;;;3.35;;
20170;SDS011;10245;51.344;6.620;2023-09-19T06:28:19;14.00;;;3.35;;
20170;SDS011;10245;51.344;6.620;2023-09-19T06:30:45;13.73;;;3.63;;
20170;SDS011;10245;51.344;6.620;2023-09-19T06:33:10;12.15;;;3.60;;
20170;SDS011;10245;51.344;6.620;2023-09-19T06:35:36;12.63;;;3.38;;
20170;SDS011;10245;51.344;6.620;2023-09-19T06:38:01;12.27;;;3.47;;
20170;SDS011;10245;51.344;6.620;2023-09-19T06:40:25;14.38;;;3.42;;
20170;SDS011;10245;51.344;6.620;2023-09-19T06:42:50;14.00;;;3.40;;
20170;SDS011;10245;51.344;6.620;2023-09-19T06:45:15;15.50;;;4.05;;
20170;SDS011;10245;51.344;6.620;2023-09-19T06:47:40;11.98;;;3.25;;
20170;SDS011;10245;51.344;6.620;2023-09-19T06:50:06;13.40;;;3.40;;
20170;SDS011;10245;51.344;6.620;2023-09-19T06:52:30;14.70;;;3.92;;
20170;SDS011;10245;51.344;6.620;2023-09-19T06:54:54;13.95;;;3.17;;
20170;SDS011;10245;51.344;6.620;2023-09-19T06:57:18;11.63;;;3.58;;
20170;SDS011;10245;51.344;6.620;2023-09-19T06:59:41;11.75;;;3.42;;
20170;SDS011;10245;51.344;6.620;2023-09-19T07:02:06;12.90;;;3.35;;
20170;SDS011;10245;51.344;6.620;2023-09-19T07:04:30;10.80;;;3.30;;
20170;SDS011;10245;51.344;6.620;2023-09-19T07:06:55;15.00;;;3.65;;
20170;SDS011;10245;51.344;6.620;2023-09-19T07:09:18;14.02;;;3.42;;
20170;SDS011;10245;51.344;6.620;2023-09-19T07:11:44;13.95;;;3.67;;
20170;SDS011;10245;51.344;6.620;2023-09-19T07:14:09;13.55;;;3.50;;
20170;SDS011;10245;51.344;6.620;2023-09-19T07:16:33;13.93;;;3.42;;
20170;SDS011;10245;51.344;6.620;2023-09-19T07:18:57;9.93;;;3.10;;
20170;SDS011;10245;51.344;6.620;2023-09-19T07:21:21;17.20;;;3.40;;
20170;SDS011;10245;51.344;6.620;2023-09-19T07:23:45;15.02;;;3.70;;
20170;SDS011;10245;51.344;6.620;2023-09-19T07:26:11;11.57;;;2.88;;
20170;SDS011;10245;51.344;6.620;2023-09-19T07:28:35;17.38;;;3.40;;
20170;SDS011;10245;51.344;6.620;2023-09-19T07:31:01;15.30;;;3.50;;
20170;SDS011;10245;51.344;6.620;2023-09-19T07:33:26;13.15;;;3.58;;
20170;SDS011;10245;51.344;6.620;2023-09-19T07:35:49;10.45;;;3.58;;
20170;SDS011;10245;51.344;6.620;2023-09-19T07:38:13;14.05;;;3.50;;
20170;SDS011;10245;51.344;6.620;2023-09-19T07:40:39;16.90;;;3.50;;
20170;SDS011;10245;51.344;6.620;2023-09-19T07:43:03;13.52;;;3.30;;
20170;SDS011;10245;51.344;6.620;2023-09-19T07:45:28;15.32;;;3.55;;
20170;SDS011;10245;51.344;6.620;2023-09-19T07:47:52;10.30;;;3.05;;
20170;SDS011;10245;51.344;6.620;2023-09-19T07:50:17;11.68;;;3.25;;
20170;SDS011;10245;51.344;6.620;2023-09-19T07:52:42;11.98;;;3.20;;
20170;SDS011;10245;51.344;6.620;2023-09-19T07:55:06;13.90;;;3.33;;
20170;SDS011;10245;51.344;6.620;2023-09-19T07:57:31;14.30;;;3.67;;
20170;SDS011;10245;51.344;6.620;2023-09-19T07:59:56;12.63;;;3.58;;
20170;SDS011;10245;51.344;6.620;2023-09-19T08:02:19;12.55;;;3.55;;
20170;SDS011;10245;51.344;6.620;2023-09-19T08:04:44;14.68;;;3.70;;
20170;SDS011;10245;51.344;6.620;2023-09-19T08:07:08;11.88;;;3.58;;
20170;SDS011;10245;51.344;6.620;2023-09-19T08:09:32;17.25;;;3.42;;
20170;SDS011;10245;51.344;6.620;2023-09-19T08:11:55;14.73;;;2.90;;
20170;SDS011;10245;51.344;6.620;2023-09-19T08:14:21;10.55;;;2.88;;
20170;SDS011;10245;51.344;6.620;2023-09-19T08:16:46;9.60;;;3.30;;
20170;SDS011;10245;51.344;6.620;2023-09-19T08:19:10;13.77;;;3.42;;
20170;SDS011;10245;51.344;6.620;2023-09-19T08:21:33;14.65;;;3.38;;
20170;SDS011;10245;51.344;6.620;2023-09-19T08:23:57;11.85;;;3.42;;
20170;SDS011;10245;51.344;6.620;2023-09-19T08:26:21;13.20;;;3.28;;
20170;SDS011;10245;51.344;6.620;2023-09-19T08:28:45;15.07;;;3.05;;
20170;SDS011;10245;51.344;6.620;2023-09-19T08:31:10;13.00;;;3.25;;
20170;SDS011;10245;51.344;6.620;2023-09-19T08:33:35;9.32;;;2.78;;
20170;SDS011;10245;51.344;6.620;2023-09-19T08:36:01;10.98;;;3.10;;
20170;SDS011;10245;51.344;6.620;2023-09-19T08:38:25;11.45;;;3.40;;
20170;SDS011;10245;51.344;6.620;2023-09-19T08:40:51;12.63;;;3.17;;
20170;SDS011;10245;51.344;6.620;2023-09-19T08:43:14;14.85;;;3.35;;
20170;SDS011;10245;51.344;6.620;2023-09-19T08:45:38;9.88;;;3.50;;
20170;SDS011;10245;51.344;6.620;2023-09-19T08:48:06;15.85;;;3.15;;
20170;SDS011;10245;51.344;6.620;2023-09-19T08:50:42;12.45;;;3.53;;
20170;SDS011;10245;51.344;6.620;2023-09-19T08:53:11;10.07;;;2.83;;
20170;SDS011;10245;51.344;6.620;2023-09-19T08:55:44;13.55;;;3.80;;
20170;SDS011;10245;51.344;6.620;2023-09-19T08:58:11;18.30;;;3.97;;
20170;SDS011;10245;51.344;6.620;2023-09-19T09:00:41;11.45;;;3.53;;
20170;SDS011;10245;51.344;6.620;2023-09-19T09:03:09;11.80;;;3.60;;
20170;SDS011;10245;51.344;6.620;2023-09-19T09:05:35;11.10;;;3.38;;
20170;SDS011;10245;51.344;6.620;2023-09-19T09:08:02;14.15;;;3.55;;
20170;SDS011;10245;51.344;6.620;2023-09-19T09:10:28;13.02;;;2.83;;
20170;SDS011;10245;51.344;6.620;2023-09-19T09:12:51;11.13;;;3.47;;
20170;SDS011;10245;51.344;6.620;2023-09-19T09:15:16;13.68;;;3.67;;
20170;SDS011;10245;51.344;6.620;2023-09-19T09:17:42;12.60;;;2.95;;
20170;SDS011;10245;51.344;6.620;2023-09-19T09:20:08;16.60;;;2.97;;
20170;SDS011;10245;51.344;6.620;2023-09-19T09:22:32;12.52;;;3.63;;
20170;SDS011;10245;51.344;6.620;2023-09-19T09:24:57;11.80;;;3.25;;
20170;SDS011;10245;51.344;6.620;2023-09-19T09:27:25;15.05;;;3.60;;
20170;SDS011;10245;51.344;6.620;2023-09-19T09:29:48;10.40;;;2.85;;
20170;SDS011;10245;51.344;6.620;2023-09-19T09:32:16;15.85;;;3.22;;
20170;SDS011;10245;51.344;6.620;2023-09-19T09:34:44;11.25;;;3.35;;
20170;SDS011;10245;51.344;6.620;2023-09-19T09:37:13;12.35;;;3.10;;
20170;SDS011;10245;51.344;6.620;2023-09-19T09:39:39;13.02;;;3.42;;
20170;SDS011;10245;51.344;6.620;2023-09-19T09:42:04;10.65;;;3.33;;
20170;SDS011;10245;51.344;6.620;2023-09-19T09:44:28;11.02;;;3.17;;
20170;SDS011;10245;51.344;6.620;2023-09-19T09:46:54;9.25;;;2.92;;
20170;SDS011;10245;51.344;6.620;2023-09-19T09:49:39;10.77;;;3.22;;
20170;SDS011;10245;51.344;6.620;2023-09-19T09:52:11;13.00;;;3.30;;
20170;SDS011;10245;51.344;6.620;2023-09-19T09:54:39;15.48;;;2.95;;
20170;SDS011;10245;51.344;6.620;2023-09-19T09:57:22;9.88;;;3.50;;
20170;SDS011;10245;51.344;6.620;2023-09-19T09:59:48;13.32;;;2.92;;
20170;SDS011;10245;51.344;6.620;2023-09-19T10:02:14;10.13;;;3.00;;
20170;SDS011;10245;51.344;6.620;2023-09-19T10:04:45;9.85;;;2.92;;
20170;SDS011;10245;51.344;6.620;2023-09-19T10:07:28;16.08;;;3.65;;
20170;SDS011;10245;51.344;6.620;2023-09-19T10:09:58;12.85;;;2.80;;
20170;SDS011;10245;51.344;6.620;2023-09-19T10:12:38;12.32;;;2.78;;
20170;SDS011;10245;51.344;6.620;2023-09-19T10:15:07;14.35;;;3.40;;
20170;SDS011;10245;51.344;6.620;2023-09-19T10:17:34;10.48;;;2.65;;
20170;SDS011;10245;51.344;6.620;2023-09-19T10:19:59;14.00;;;3.17;;
20170;SDS011;10245;51.344;6.620;2023-09-19T10:22:32;15.40;;;2.92;;
20170;SDS011;10245;51.344;6.620;2023-09-19T10:24:58;10.07;;;2.92;;
20170;SDS011;10245;51.344;6.620;2023-09-19T10:27:25;8.98;;;2.63;;
20170;SDS011;10245;51.344;6.620;2023-09-19T10:29:51;12.25;;;2.60;;
20170;SDS011;10245;51.344;6.620;2023-09-19T10:32:16;10.15;;;2.83;;
20170;SDS011;10245;51.344;6.620;2023-09-19T10:34:41;10.68;;;3.25;;
20170;SDS011;10245;51.344;6.620;2023-09-19T10:37:05;9.88;;;3.05;;
20170;SDS011;10245;51.344;6.620;2023-09-19T10:39:32;8.55;;;2.67;;
20170;SDS011;10245;51.344;6.620;2023-09-19T10:41:55;8.75;;;2.92;;
20170;SDS011;10245;51.344;6.620;2023-09-19T10:44:27;10.85;;;3.10;;
20170;SDS011;10245;51.344;6.620;2023-09-19T10:46:54;12.85;;;3.22;;
20170;SDS011;10245;51.344;6.620;2023-09-19T10:49:20;11.13;;;3.40;;
20170;SDS011;10245;51.344;6.620;2023-09-19T10:51:45;11.32;;;2.80;;
20170;SDS011;10245;51.344;6.620;2023-09-19T10:54:12;11.05;;;3.10;;
20170;SDS011;10245;51.344;6.620;2023-09-19T10:56:42;16.95;;;3.15;;
20170;SDS011;10245;51.344;6.620;2023-09-19T10:59:11;13.20;;;3.05;;
20170;SDS011;10245;51.344;6.620;2023-09-19T11:01:41;6.72;;;2.83;;
20170;SDS011;10245;51.344;6.620;2023-09-19T11:04:21;10.50;;;2.80;;
20170;SDS011;10245;51.344;6.620;2023-09-19T11:06:56;9.75;;;2.90;;
20170;SDS011;10245;51.344;6.620;2023-09-19T11:09:24;10.98;;;3.13;;
20170;SDS011;10245;51.344;6.620;2023-09-19T11:12:08;9.40;;;2.80;;
20170;SDS011;10245;51.344;6.620;2023-09-19T11:14:41;11.45;;;3.25;;
20170;SDS011;10245;51.344;6.620;2023-09-19T11:20:18;10.80;;;2.90;;
20170;SDS011;10245;51.344;6.620;2023-09-19T11:23:20;12.25;;;2.90;;
20170;SDS011;10245;51.344;6.620;2023-09-19T11:25:46;9.07;;;2.88;;
20170;SDS011;10245;51.344;6.620;2023-09-19T11:28:31;9.75;;;3.13;;
20170;SDS011;10245;51.344;6.620;2023-09-19T11:30:58;9.85;;;2.97;;
20170;SDS011;10245;51.344;6.620;2023-09-19T11:33:21;15.88;;;2.92;;
20170;SDS011;10245;51.344;6.620;2023-09-19T11:41:37;8.77;;;2.60;;
20170;SDS011;10245;51.344;6.620;2023-09-19T11:47:02;9.95;;;3.05;;
20170;SDS011;10245;51.344;6.620;2023-09-19T11:49:28;8.40;;;2.97;;
20170;SDS011;10245;51.344;6.620;2023-09-19T11:51:53;9.93;;;2.60;;
20170;SDS011;10245;51.344;6.620;2023-09-19T11:54:18;9.63;;;2.85;;
20170;SDS011;10245;51.344;6.620;2023-09-19T11:56:43;11.20;;;3.78;;
20170;SDS011;10245;51.344;6.620;2023-09-19T11:59:11;7.97;;;2.67;;
20170;SDS011;10245;51.344;6.620;2023-09-19T12:01:36;10.18;;;2.78;;
20170;SDS011;10245;51.344;6.620;2023-09-19T12:04:06;8.73;;;2.70;;
20170;SDS011;10245;51.344;6.620;2023-09-19T12:06:33;9.05;;;2.60;;
20170;SDS011;10245;51.344;6.620;2023-09-19T12:09:00;8.85;;;3.05;;
20170;SDS011;10245;51.344;6.620;2023-09-19T12:11:27;8.55;;;3.03;;
20170;SDS011;10245;51.344;6.620;2023-09-19T12:13:55;8.75;;;2.85;;
20170;SDS011;10245;51.344;6.620;2023-09-19T12:16:21;12.15;;;2.83;;
20170;SDS011;10245;51.344;6.620;2023-09-19T12:18:47;7.93;;;2.78;;
20170;SDS011;10245;51.344;6.620;2023-09-19T12:21:27;10.48;;;3.55;;
20170;SDS011;10245;51.344;6.620;2023-09-19T12:23:59;6.72;;;2.53;;
20170;SDS011;10245;51.344;6.620;2023-09-19T12:26:27;8.82;;;2.53;;
20170;SDS011;10245;51.344;6.620;2023-09-19T12:28:51;7.47;;;2.65;;
20170;SDS011;10245;51.344;6.620;2023-09-19T12:31:16;7.78;;;2.35;;
20170;SDS011;10245;51.344;6.620;2023-09-19T12:33:40;8.15;;;2.55;;
20170;SDS011;10245;51.344;6.620;2023-09-19T12:36:20;9.02;;;2.92;;
20170;SDS011;10245;51.344;6.620;2023-09-19T12:38:50;10.90;;;2.60;;
20170;SDS011;10245;51.344;6.620;2023-09-19T12:41:16;6.00;;;2.40;;
20170;SDS011;10245;51.344;6.620;2023-09-19T12:43:39;9.10;;;2.20;;
20170;SDS011;10245;51.344;6.620;2023-09-19T12:46:04;8.23;;;2.42;;
20170;SDS011;10245;51.344;6.620;2023-09-19T12:48:27;8.75;;;2.33;;
20170;SDS011;10245;51.344;6.620;2023-09-19T12:50:59;8.90;;;1.73;;
20170;SDS011;10245;51.344;6.620;2023-09-19T12:53:30;5.95;;;2.30;;
20170;SDS011;10245;51.344;6.620;2023-09-19T12:55:57;7.47;;;2.13;;
20170;SDS011;10245;51.344;6.620;2023-09-19T12:58:21;4.78;;;1.98;;
20170;SDS011;10245;51.344;6.620;2023-09-19T13:00:45;7.63;;;2.20;;
20170;SDS011;10245;51.344;6.620;2023-09-19T13:03:13;8.07;;;2.17;;
20170;SDS011;10245;51.344;6.620;2023-09-19T13:05:47;6.20;;;2.38;;
20170;SDS011;10245;51.344;6.620;2023-09-19T13:08:20;8.40;;;2.05;;
20170;SDS011;10245;51.344;6.620;2023-09-19T13:11:05;6.45;;;2.03;;
20170;SDS011;10245;51.344;6.620;2023-09-19T13:13:32;14.07;;;2.10;;
20170;SDS011;10245;51.344;6.620;2023-09-19T13:15:57;7.85;;;2.17;;
20170;SDS011;10245;51.344;6.620;2023-09-19T13:18:22;7.68;;;2.17;;
20170;SDS011;10245;51.344;6.620;2023-09-19T13:23:32;6.28;;;1.88;;
20170;SDS011;10245;51.344;6.620;2023-09-19T13:25:55;6.72;;;2.25;;
20170;SDS011;10245;51.344;6.620;2023-09-19T13:28:19;3.95;;;1.85;;
20170;SDS011;10245;51.344;6.620;2023-09-19T13:30:43;7.43;;;2.10;;
20170;SDS011;10245;51.344;6.620;2023-09-19T13:33:08;3.95;;;1.67;;
20170;SDS011;10245;51.344;6.620;2023-09-19T13:35:33;6.00;;;2.00;;
20170;SDS011;10245;51.344;6.620;2023-09-19T13:37:58;6.65;;;1.80;;
20170;SDS011;10245;51.344;6.620;2023-09-19T13:40:22;5.28;;;2.03;;
20170;SDS011;10245;51.344;6.620;2023-09-19T13:42:46;6.78;;;1.95;;
20170;SDS011;10245;51.344;6.620;2023-09-19T13:45:11;5.00;;;1.50;;
20170;SDS011;10245;51.344;6.620;2023-09-19T13:47:37;7.03;;;1.60;;
20170;SDS011;10245;51.344;6.620;2023-09-19T13:50:02;10.93;;;1.98;;
20170;SDS011;10245;51.344;6.620;2023-09-19T13:52:26;6.13;;;1.63;;
20170;SDS011;10245;51.344;6.620;2023-09-19T13:54:52;5.40;;;1.83;;
20170;SDS011;10245;51.344;6.620;2023-09-19T13:57:18;7.55;;;1.83;;
20170;SDS011;10245;51.344;6.620;2023-09-19T13:59:41;6.40;;;1.63;;
20170;SDS011;10245;51.344;6.620;2023-09-19T14:02:06;3.30;;;1.35;;
20170;SDS011;10245;51.344;6.620;2023-09-19T14:04:29;8.00;;;1.20;;
20170;SDS011;10245;51.344;6.620;2023-09-19T14:06:52;4.82;;;1.88;;
20170;SDS011;10245;51.344;6.620;2023-09-19T14:09:16;8.55;;;1.85;;
20170;SDS011;10245;51.344;6.620;2023-09-19T14:11:40;6.88;;;1.60;;
20170;SDS011;10245;51.344;6.620;2023-09-19T14:14:07;5.70;;;1.15;;
20170;SDS011;10245;51.344;6.620;2023-09-19T14:16:30;4.78;;;1.70;;
20170;SDS011;10245;51.344;6.620;2023-09-19T14:18:56;4.05;;;1.40;;
20170;SDS011;10245;51.344;6.620;2023-09-19T14:21:20;4.55;;;1.15;;
20170;SDS011;10245;51.344;6.620;2023-09-19T14:23:44;3.15;;;1.50;;
20170;SDS011;10245;51.344;6.620;2023-09-19T14:26:08;3.60;;;1.30;;
20170;SDS011;10245;51.344;6.620;2023-09-19T14:28:32;6.90;;;1.35;;
20170;SDS011;10245;51.344;6.620;2023-09-19T14:30:56;4.55;;;1.50;;
20170;SDS011;10245;51.344;6.620;2023-09-19T14:33:21;3.67;;;1.30;;
20170;SDS011;10245;51.344;6.620;2023-09-19T14:35:45;4.35;;;1.33;;
20170;SDS011;10245;51.344;6.620;2023-09-19T14:38:08;3.92;;;1.23;;
20170;SDS011;10245;51.344;6.620;2023-09-19T14:40:32;7.63;;;1.20;;
20170;SDS011;10245;51.344;6.620;2023-09-19T14:42:57;2.22;;;1.13;;
20170;SDS011;10245;51.344;6.620;2023-09-19T14:45:20;5.00;;;1.20;;
20170;SDS011;10245;51.344;6.620;2023-09-19T14:50:09;5.25;;;1.20;;
20170;SDS011;10245;51.344;6.620;2023-09-19T14:52:35;5.53;;;1.52;;